Time;durP1;ratioP1;P1;durP2;ratioP2;P2;SDS_P1;SDS_P2;PMS_P1;PMS_P2;Temp;Humidity;BMP_temperature;BMP_pressure;BME280_temperature;BME280_humidity;BME280_pressure;Samples;Min_cycle;Max_cycle;Signal;HPM_P1;HPM_P2
2022/11/30 05:06:02;;;;;;;10.77;7.07;;;6.60;99.90;;;;;;4905154;26;20255;-66
2022/11/30 05:08:27;;;;;;;9.13;7.70;;;6.60;99.90;;;;;;4936398;29;20220;-67
2022/11/30 05:10:53;;;;;;;11.87;7.80;;;6.60;99.90;;;;;;4936350;29;20176;-69
2022/11/30 05:13:20;;;;;;;14.65;8.32;;;6.70;99.90;;;;;;4930274;29;20644;-68
2022/11/30 05:15:46;;;;;;;12.48;8.05;;;6.70;99.90;;;;;;4935900;29;20213;-66
2022/11/30 05:18:12;;;;;;;12.80;9.13;;;6.70;99.90;;;;;;4935080;29;20263;-68
2022/11/30 05:20:37;;;;;;;11.73;8.20;;;6.70;99.90;;;;;;4936249;29;20178;-68
2022/11/30 05:23:03;;;;;;;8.03;7.03;;;6.70;99.90;;;;;;4935915;29;20540;-67
2022/11/30 05:25:28;;;;;;;11.70;7.90;;;6.70;99.90;;;;;;4935980;29;20195;-68
2022/11/30 05:27:54;;;;;;;11.93;7.70;;;6.70;99.90;;;;;;4935832;29;20231;-68
2022/11/30 05:30:19;;;;;;;8.63;7.17;;;6.70;99.90;;;;;;4935936;29;20220;-67
2022/11/30 05:32:45;;;;;;;8.70;6.70;;;6.70;99.90;;;;;;4935653;29;20173;-67
2022/11/30 05:35:11;;;;;;;8.10;6.93;;;6.70;99.90;;;;;;4934453;29;20709;-67
2022/11/30 05:37:36;;;;;;;9.73;7.20;;;6.80;99.90;;;;;;4936167;29;20628;-68
2022/11/30 05:40:03;;;;;;;10.93;7.30;;;6.80;99.90;;;;;;4936157;29;20636;-67
2022/11/30 05:42:28;;;;;;;8.70;6.13;;;6.80;99.90;;;;;;4934768;29;20773;-67
2022/11/30 05:44:54;;;;;;;10.80;7.83;;;6.80;99.90;;;;;;4933352;29;20215;-69
2022/11/30 05:47:20;;;;;;;10.15;8.35;;;6.80;99.90;;;;;;4935418;29;20196;-68
2022/11/30 05:49:45;;;;;;;10.90;9.30;;;6.70;99.90;;;;;;4935661;29;20180;-66
2022/11/30 05:52:11;;;;;;;12.47;7.10;;;6.70;99.90;;;;;;4935883;29;20644;-69
2022/11/30 05:54:37;;;;;;;12.70;8.53;;;6.70;99.90;;;;;;4935560;29;20634;-70
2022/11/30 05:57:04;;;;;;;11.03;7.53;;;6.60;99.90;;;;;;4936082;29;20177;-67
2022/11/30 05:59:31;;;;;;;11.20;8.20;;;6.60;99.90;;;;;;4936328;29;20255;-68
2022/11/30 06:01:57;;;;;;;10.90;6.82;;;6.70;99.90;;;;;;4936352;29;20532;-69
2022/11/30 06:04:23;;;;;;;12.50;8.10;;;6.70;99.90;;;;;;4935224;29;20292;-68
2022/11/30 06:06:49;;;;;;;16.10;8.47;;;6.70;99.90;;;;;;4936138;29;20211;-68
2022/11/30 06:09:15;;;;;;;10.88;7.90;;;6.70;99.90;;;;;;4935786;29;20180;-67
2022/11/30 06:11:40;;;;;;;9.93;7.10;;;6.70;99.90;;;;;;4933657;29;20644;-67
2022/11/30 06:14:06;;;;;;;14.00;7.40;;;6.70;99.90;;;;;;4935032;29;20213;-65
2022/11/30 06:16:32;;;;;;;7.63;6.33;;;6.70;99.90;;;;;;4934766;29;20253;-68
2022/11/30 06:18:57;;;;;;;10.10;8.47;;;6.80;99.90;;;;;;4935639;29;20677;-68
2022/11/30 06:21:23;;;;;;;9.90;7.63;;;6.80;99.90;;;;;;4936941;29;20207;-67
2022/11/30 06:23:48;;;;;;;11.63;6.60;;;6.80;99.90;;;;;;4934855;29;20200;-67
2022/11/30 06:26:14;;;;;;;9.67;7.90;;;6.80;99.90;;;;;;4935349;29;20348;-68
2022/11/30 06:28:40;;;;;;;10.30;7.23;;;6.80;99.90;;;;;;4934226;29;20220;-67
2022/11/30 06:31:06;;;;;;;12.30;7.57;;;6.80;99.90;;;;;;4935382;29;20232;-67
2022/11/30 06:33:34;;;;;;;11.57;7.10;;;6.80;99.90;;;;;;4935206;29;20549;-67
2022/11/30 06:36:00;;;;;;;7.90;6.70;;;6.80;99.90;;;;;;4935548;29;20216;-68
2022/11/30 06:38:26;;;;;;;12.33;7.70;;;6.80;99.90;;;;;;4935127;29;20197;-67
2022/11/30 06:40:52;;;;;;;15.17;8.03;;;6.80;99.90;;;;;;4934999;29;20181;-68
2022/11/30 06:43:18;;;;;;;9.50;6.63;;;6.80;99.90;;;;;;4935068;29;20261;-67
2022/11/30 06:45:45;;;;;;;11.30;8.60;;;6.80;99.90;;;;;;4933579;29;20672;-67
2022/11/30 06:48:12;;;;;;;10.50;7.22;;;6.80;99.90;;;;;;4935107;29;20308;-69
2022/11/30 06:50:38;;;;;;;10.82;7.10;;;6.80;99.90;;;;;;4935043;29;20181;-67
2022/11/30 06:53:04;;;;;;;10.95;6.88;;;6.90;99.90;;;;;;4934458;29;20640;-68
2022/11/30 06:55:31;;;;;;;11.80;7.03;;;6.90;99.90;;;;;;4934736;29;20205;-66
2022/11/30 06:58:10;;;;;;;9.80;7.57;;;6.90;99.90;;;;;;4937225;29;20223;-67
2022/11/30 07:00:36;;;;;;;9.50;7.93;;;6.90;99.90;;;;;;4937743;29;20230;-67
2022/11/30 07:03:03;;;;;;;12.80;6.95;;;6.90;99.90;;;;;;4936521;29;20917;-67
2022/11/30 07:05:31;;;;;;;9.70;7.63;;;7.00;99.90;;;;;;4937826;29;20250;-67
2022/11/30 07:07:56;;;;;;;14.27;7.53;;;7.00;99.90;;;;;;4938089;29;20209;-66
2022/11/30 07:10:22;;;;;;;10.53;8.63;;;7.00;99.90;;;;;;4937764;29;20664;-68
2022/11/30 07:12:48;;;;;;;11.27;8.90;;;6.90;99.90;;;;;;4931201;29;20223;-67
2022/11/30 07:15:14;;;;;;;13.50;9.05;;;6.90;99.90;;;;;;4936557;29;20639;-68
2022/11/30 07:17:40;;;;;;;10.17;7.67;;;6.90;99.90;;;;;;4936752;29;20216;-68
2022/11/30 07:20:06;;;;;;;11.97;7.37;;;6.90;99.90;;;;;;4937763;29;20440;-68
2022/11/30 07:22:32;;;;;;;10.77;8.27;;;6.90;99.90;;;;;;4937738;29;20182;-68
2022/11/30 07:27:41;;;;;;;11.80;9.02;;;7.00;99.90;;;;;;4936730;29;20291;-69
2022/11/30 07:30:07;;;;;;;13.37;10.00;;;7.00;99.90;;;;;;4937051;29;20252;-67
2022/11/30 07:32:33;;;;;;;14.52;7.32;;;7.00;99.90;;;;;;4937129;29;20191;-68
2022/11/30 07:34:59;;;;;;;13.30;8.37;;;7.10;99.90;;;;;;4937307;29;20575;-67
2022/11/30 07:37:24;;;;;;;11.60;8.80;;;7.10;99.90;;;;;;4937954;29;20200;-69
2022/11/30 07:39:50;;;;;;;14.57;8.43;;;7.10;99.90;;;;;;4937878;29;20601;-67
2022/11/30 07:42:16;;;;;;;10.47;8.90;;;7.10;99.90;;;;;;4937540;29;20569;-67
2022/11/30 07:44:42;;;;;;;14.48;8.75;;;7.20;99.90;;;;;;4937574;29;20204;-67
2022/11/30 07:47:07;;;;;;;18.07;12.10;;;7.20;99.90;;;;;;4937562;29;20235;-67
2022/11/30 07:49:33;;;;;;;18.90;9.83;;;7.20;99.90;;;;;;4937518;29;20184;-67
2022/11/30 07:51:58;;;;;;;18.97;10.77;;;7.30;99.90;;;;;;4937754;29;20655;-66
2022/11/30 07:54:24;;;;;;;11.53;9.43;;;7.30;99.90;;;;;;4936877;29;20212;-66
2022/11/30 07:56:50;;;;;;;13.60;10.60;;;7.30;99.90;;;;;;4937439;29;20193;-66
2022/11/30 07:59:18;;;;;;;17.00;8.83;;;7.30;99.90;;;;;;4937463;29;20226;-67
2022/11/30 08:01:44;;;;;;;16.67;10.13;;;7.40;99.90;;;;;;4937672;29;20366;-66
2022/11/30 08:04:12;;;;;;;14.90;9.57;;;7.40;99.90;;;;;;4937144;29;20304;-66
2022/11/30 08:06:38;;;;;;;13.40;10.15;;;7.40;99.90;;;;;;4937110;29;20552;-68
2022/11/30 08:09:04;;;;;;;16.17;10.27;;;7.50;99.90;;;;;;4936440;29;20175;-66
2022/11/30 08:11:32;;;;;;;16.00;8.20;;;7.50;99.90;;;;;;4937204;29;20424;-65
2022/11/30 08:13:58;;;;;;;16.20;11.07;;;7.60;99.90;;;;;;4936535;29;20451;-67
2022/11/30 08:16:27;;;;;;;11.97;8.13;;;7.60;99.90;;;;;;4937023;29;20271;-67
2022/11/30 08:18:55;;;;;;;10.00;6.80;;;7.60;99.90;;;;;;4937188;29;20469;-68
2022/11/30 08:21:21;;;;;;;9.43;8.07;;;7.60;99.90;;;;;;4937475;29;20177;-65
2022/11/30 08:23:48;;;;;;;14.10;9.03;;;7.60;99.90;;;;;;4936453;29;20746;-67
2022/11/30 08:26:19;;;;;;;10.88;8.52;;;7.60;99.90;;;;;;4936687;29;20268;-65
2022/11/30 08:28:47;;;;;;;12.73;8.45;;;7.60;99.90;;;;;;4936962;29;20208;-66
2022/11/30 08:31:16;;;;;;;9.30;7.55;;;7.60;99.90;;;;;;4936764;29;20174;-68
2022/11/30 08:33:42;;;;;;;9.43;7.55;;;7.60;99.90;;;;;;4936181;29;20630;-66
2022/11/30 08:36:08;;;;;;;16.67;8.53;;;7.60;99.90;;;;;;4936688;29;20216;-67
2022/11/30 08:38:34;;;;;;;12.57;8.80;;;7.70;99.90;;;;;;4936699;29;20213;-66
2022/11/30 08:41:01;;;;;;;12.68;8.68;;;7.70;99.90;;;;;;4936904;29;20311;-68
2022/11/30 08:43:29;;;;;;;12.02;8.00;;;7.70;99.90;;;;;;4935873;29;20185;-66
2022/11/30 08:45:55;;;;;;;17.83;10.27;;;7.60;99.90;;;;;;4936571;29;20199;-70
2022/11/30 08:48:21;;;;;;;13.73;7.97;;;7.60;99.90;;;;;;4936009;29;20205;-68
2022/11/30 08:50:49;;;;;;;15.60;8.17;;;7.50;99.90;;;;;;4935940;29;20174;-68
2022/11/30 08:53:15;;;;;;;9.55;7.85;;;7.50;99.90;;;;;;4936223;29;20257;-68
2022/11/30 08:55:41;;;;;;;13.07;9.60;;;7.50;99.90;;;;;;4936584;29;20257;-67
2022/11/30 08:58:07;;;;;;;14.07;8.77;;;7.50;99.90;;;;;;4936839;29;20182;-68
2022/11/30 09:00:32;;;;;;;9.57;7.77;;;7.50;99.90;;;;;;4936627;29;20405;-68
2022/11/30 09:03:01;;;;;;;14.87;8.03;;;7.50;99.90;;;;;;4936430;29;20540;-69
2022/11/30 09:05:27;;;;;;;14.50;7.90;;;7.50;99.90;;;;;;4935925;29;20228;-69
2022/11/30 09:07:52;;;;;;;12.03;8.50;;;7.50;99.90;;;;;;4936412;29;20263;-67
2022/11/30 09:10:18;;;;;;;10.90;8.30;;;7.60;99.90;;;;;;4936479;29;20176;-66
2022/11/30 09:12:43;;;;;;;12.47;7.60;;;7.60;99.90;;;;;;4935722;29;20216;-66
2022/11/30 09:15:09;;;;;;;10.40;7.17;;;7.50;99.90;;;;;;4934514;29;20303;-66
2022/11/30 09:17:35;;;;;;;15.87;9.37;;;7.50;99.90;;;;;;4935489;29;20188;-65
2022/11/30 09:20:01;;;;;;;15.10;9.25;;;7.50;99.90;;;;;;4935022;29;20456;-67
2022/11/30 09:22:27;;;;;;;11.93;8.23;;;7.50;99.90;;;;;;4936162;29;20770;-66
2022/11/30 09:24:53;;;;;;;11.93;6.90;;;7.50;99.90;;;;;;4934554;29;20857;-65
2022/11/30 09:27:19;;;;;;;14.40;9.20;;;7.50;99.90;;;;;;4935437;29;20457;-66
2022/11/30 09:29:45;;;;;;;10.75;7.90;;;7.50;99.90;;;;;;4936457;29;20400;-65
2022/11/30 09:32:10;;;;;;;19.03;9.47;;;7.50;99.90;;;;;;4936117;29;20177;-67
2022/11/30 09:34:39;;;;;;;13.10;8.80;;;7.50;99.90;;;;;;4935648;29;20268;-66
2022/11/30 09:37:04;;;;;;;12.80;7.88;;;7.50;99.90;;;;;;4935856;29;20181;-65
2022/11/30 09:39:30;;;;;;;13.80;7.33;;;7.50;99.90;;;;;;4935998;29;20301;-68
2022/11/30 09:42:20;;;;;;;10.73;6.97;;;7.50;99.90;;;;;;4935936;29;20232;-67
2022/11/30 09:44:57;;;;;;;11.10;6.80;;;7.60;99.90;;;;;;4935594;29;20543;-66
2022/11/30 09:47:52;;;;;;;13.93;8.55;;;7.70;99.90;;;;;;4935715;29;20546;-65
2022/11/30 09:50:23;;;;;;;11.55;8.35;;;7.70;99.90;;;;;;4930930;29;20228;-65
2022/11/30 09:52:52;;;;;;;12.98;7.60;;;7.80;99.90;;;;;;4935509;29;20646;-66
2022/11/30 09:55:32;;;;;;;9.52;7.30;;;7.90;99.90;;;;;;4934913;29;20212;-64
2022/11/30 09:58:01;;;;;;;16.15;8.80;;;8.00;99.90;;;;;;4935268;29;20177;-67
2022/11/30 10:00:27;;;;;;;10.50;7.32;;;8.00;99.90;;;;;;4929591;29;20196;-67
2022/11/30 10:02:56;;;;;;;10.27;8.23;;;8.00;99.90;;;;;;4935141;29;20174;-65
2022/11/30 10:05:37;;;;;;;11.85;7.70;;;8.00;99.90;;;;;;4935279;29;20456;-66
2022/11/30 10:08:21;;;;;;;13.15;7.53;;;8.00;99.90;;;;;;4935263;29;20193;-65
2022/11/30 10:11:05;;;;;;;10.20;6.72;;;8.00;99.90;;;;;;4935296;29;20181;-66
2022/11/30 10:13:58;;;;;;;12.65;8.38;;;8.00;99.90;;;;;;4935213;29;20264;-67
2022/11/30 10:16:51;;;;;;;9.93;6.53;;;8.10;99.90;;;;;;4935375;29;20253;-67
2022/11/30 10:19:38;;;;;;;12.13;8.38;;;8.10;99.90;;;;;;4936000;29;20178;-66
2022/11/30 10:22:19;;;;;;;9.60;7.15;;;8.20;99.90;;;;;;4935943;29;20185;-68
2022/11/30 10:25:16;;;;;;;12.77;8.38;;;8.20;99.90;;;;;;4935333;29;20204;-67
2022/11/30 10:27:53;;;;;;;9.65;7.10;;;8.10;99.90;;;;;;4935080;29;20205;-66
2022/11/30 10:30:22;;;;;;;10.60;7.30;;;8.10;99.90;;;;;;4935674;29;20262;-67
2022/11/30 10:32:58;;;;;;;9.20;5.43;;;8.10;99.90;;;;;;4938097;29;20278;-67
2022/11/30 10:35:42;;;;;;;11.60;6.95;;;8.20;99.90;;;;;;4938968;29;20205;-68
2022/11/30 10:38:20;;;;;;;10.35;6.70;;;8.20;99.90;;;;;;4939482;29;20172;-67
2022/11/30 10:41:07;;;;;;;8.25;5.70;;;8.30;99.90;;;;;;4939147;29;20272;-66
2022/11/30 10:43:47;;;;;;;9.30;6.85;;;8.40;99.90;;;;;;4938446;29;20189;-66
2022/11/30 10:46:46;;;;;;;9.25;6.90;;;8.40;99.90;;;;;;4939183;29;20169;-67
2022/11/30 10:49:17;;;;;;;11.27;6.15;;;8.40;99.90;;;;;;4931733;29;20272;-66
2022/11/30 10:51:47;;;;;;;9.13;7.43;;;8.40;99.90;;;;;;4938872;29;20177;-67
2022/11/30 10:54:19;;;;;;;6.18;5.35;;;8.50;99.90;;;;;;4938291;29;20197;-65
2022/11/30 10:56:45;;;;;;;10.10;6.25;;;8.50;99.90;;;;;;4938623;29;20181;-65
2022/11/30 10:59:40;;;;;;;6.60;5.38;;;8.50;99.90;;;;;;4939030;29;20565;-65
2022/11/30 11:02:44;;;;;;;10.30;6.85;;;8.50;99.90;;;;;;4934719;29;20224;-66
2022/11/30 11:05:29;;;;;;;9.60;6.22;;;8.40;99.90;;;;;;4934813;29;20213;-64
2022/11/30 11:08:01;;;;;;;9.88;6.85;;;8.40;99.90;;;;;;4938167;29;20561;-65
2022/11/30 11:10:43;;;;;;;8.65;6.72;;;8.40;99.90;;;;;;4938796;29;20263;-65
2022/11/30 11:13:34;;;;;;;6.97;5.85;;;8.40;99.90;;;;;;4938601;29;20173;-66
2022/11/30 11:16:01;;;;;;;9.05;6.82;;;8.40;99.90;;;;;;4938858;29;20182;-66
2022/11/30 11:18:28;;;;;;;9.13;5.95;;;8.50;99.90;;;;;;4937546;29;20178;-65
2022/11/30 11:21:02;;;;;;;8.70;6.47;;;8.40;99.90;;;;;;4937684;29;20321;-66
2022/11/30 11:23:39;;;;;;;12.48;7.80;;;8.40;99.90;;;;;;4937831;29;20169;-65
2022/11/30 11:26:26;;;;;;;10.90;6.75;;;8.40;99.90;;;;;;4919608;29;20186;-65
2022/11/30 11:28:53;;;;;;;9.30;6.78;;;8.40;99.90;;;;;;4919319;29;20229;-65
2022/11/30 11:31:31;;;;;;;12.70;8.02;;;8.40;99.90;;;;;;4919174;29;20210;-65
2022/11/30 11:33:57;;;;;;;12.75;7.57;;;8.40;99.90;;;;;;4920810;29;20205;-65
2022/11/30 11:36:30;;;;;;;10.00;7.38;;;8.40;99.90;;;;;;4938165;29;20229;-65
2022/11/30 11:38:57;;;;;;;10.77;7.20;;;8.40;99.90;;;;;;4938182;29;20178;-64
2022/11/30 11:41:32;;;;;;;10.55;6.78;;;8.50;99.90;;;;;;4937952;29;20534;-64
2022/11/30 11:44:05;;;;;;;8.20;5.60;;;8.50;99.90;;;;;;4936230;29;20205;-65
2022/11/30 11:46:37;;;;;;;7.13;5.53;;;8.50;99.90;;;;;;4938028;29;20196;-65
2022/11/30 11:49:22;;;;;;;12.38;7.28;;;8.50;99.90;;;;;;4937890;29;20251;-65
2022/11/30 11:52:06;;;;;;;8.73;7.15;;;8.50;99.90;;;;;;4937747;29;20645;-64
2022/11/30 11:54:45;;;;;;;8.40;6.28;;;8.60;99.90;;;;;;4936817;29;20205;-65
2022/11/30 11:57:15;;;;;;;10.70;7.75;;;8.50;99.90;;;;;;4937925;29;20541;-66
2022/11/30 11:59:49;;;;;;;8.60;6.00;;;8.50;99.90;;;;;;4936720;29;20220;-66
2022/11/30 12:02:33;;;;;;;9.35;6.25;;;8.60;99.90;;;;;;4936940;29;20184;-65
2022/11/30 12:05:07;;;;;;;8.93;7.43;;;8.60;99.90;;;;;;4935348;29;20213;-65
2022/11/30 12:07:55;;;;;;;8.98;6.45;;;8.50;99.90;;;;;;4937468;29;20200;-66
2022/11/30 12:10:30;;;;;;;11.25;6.93;;;8.60;99.90;;;;;;4937473;29;20170;-69
2022/11/30 12:12:58;;;;;;;9.75;6.60;;;8.60;99.90;;;;;;4936981;29;20173;-66
2022/11/30 12:15:32;;;;;;;10.10;7.03;;;8.60;99.90;;;;;;4937496;29;20276;-65
2022/11/30 12:18:18;;;;;;;9.45;6.40;;;8.70;99.90;;;;;;4936948;29;20228;-65
2022/11/30 12:20:55;;;;;;;8.70;5.35;;;8.70;99.90;;;;;;4936937;29;20177;-65
2022/11/30 12:23:32;;;;;;;7.55;5.65;;;8.70;99.90;;;;;;4934427;29;20519;-65
2022/11/30 12:26:03;;;;;;;10.82;7.13;;;8.70;99.90;;;;;;4937310;29;20177;-64
2022/11/30 12:28:58;;;;;;;6.75;4.78;;;8.60;99.90;;;;;;4937163;29;20554;-64
2022/11/30 12:31:43;;;;;;;8.55;6.60;;;8.60;99.90;;;;;;4936767;29;20181;-65
2022/11/30 12:34:40;;;;;;;10.10;6.47;;;8.50;99.90;;;;;;4935526;29;20623;-64
2022/11/30 12:37:18;;;;;;;12.02;7.03;;;8.50;99.90;;;;;;4936919;29;20185;-66
2022/11/30 12:39:56;;;;;;;9.70;6.10;;;8.50;99.90;;;;;;4937159;29;20184;-65
2022/11/30 12:42:58;;;;;;;7.88;5.75;;;8.40;99.90;;;;;;4936991;29;20173;-65
2022/11/30 12:45:33;;;;;;;6.88;5.43;;;8.40;99.90;;;;;;4934749;29;20219;-65
2022/11/30 12:48:22;;;;;;;8.52;5.68;;;8.30;99.90;;;;;;4936320;29;20208;-65
2022/11/30 12:50:59;;;;;;;7.88;7.05;;;8.30;99.90;;;;;;4936642;29;20240;-65
2022/11/30 12:53:28;;;;;;;6.15;4.80;;;8.30;99.90;;;;;;4935984;29;20181;-64
2022/11/30 12:56:11;;;;;;;8.25;6.05;;;8.30;99.90;;;;;;4936449;29;20657;-64
2022/11/30 12:59:04;;;;;;;6.18;5.43;;;8.30;99.90;;;;;;4936798;29;20614;-63
2022/11/30 13:01:35;;;;;;;8.65;5.68;;;8.20;99.90;;;;;;4936580;29;20181;-64
2022/11/30 13:04:27;;;;;;;7.60;6.78;;;8.20;99.90;;;;;;4936437;29;20202;-65
2022/11/30 13:07:13;;;;;;;9.00;6.45;;;8.20;99.90;;;;;;4936522;29;20213;-65
2022/11/30 13:09:50;;;;;;;8.88;6.47;;;8.10;99.90;;;;;;4936640;29;20185;-66
2022/11/30 13:12:21;;;;;;;8.27;5.53;;;8.10;99.90;;;;;;4935268;29;20177;-65
2022/11/30 13:14:47;;;;;;;7.38;5.47;;;8.10;99.90;;;;;;4924501;29;20192;-65
2022/11/30 13:17:18;;;;;;;7.68;6.45;;;8.10;99.90;;;;;;4926547;29;20511;-64
2022/11/30 13:20:07;;;;;;;8.85;6.60;;;8.00;99.90;;;;;;4925879;29;20542;-65
2022/11/30 13:22:40;;;;;;;13.15;7.40;;;8.00;99.90;;;;;;4934484;29;20185;-66
2022/11/30 13:25:21;;;;;;;6.32;5.22;;;8.00;99.90;;;;;;4931928;29;20205;-69
2022/11/30 13:28:06;;;;;;;7.55;5.90;;;8.00;99.90;;;;;;4933982;29;20247;-66
2022/11/30 13:30:46;;;;;;;8.50;5.13;;;8.00;99.90;;;;;;4934792;29;20216;-66
2022/11/30 13:33:34;;;;;;;7.50;6.43;;;8.10;99.90;;;;;;4932987;29;20173;-66
2022/11/30 13:36:30;;;;;;;7.38;5.63;;;8.20;99.90;;;;;;4936296;29;20258;-64
2022/11/30 13:39:14;;;;;;;8.93;6.70;;;8.30;99.90;;;;;;4935573;29;20208;-66
2022/11/30 13:41:46;;;;;;;9.57;6.40;;;8.30;99.90;;;;;;4935406;29;20192;-66
2022/11/30 13:44:27;;;;;;;7.97;5.30;;;8.20;99.90;;;;;;4935527;29;20197;-66
2022/11/30 13:46:53;;;;;;;10.23;6.82;;;8.20;99.90;;;;;;4935499;29;20185;-64
2022/11/30 13:49:30;;;;;;;13.37;5.10;;;8.20;99.90;;;;;;4934839;29;20181;-67
2022/11/30 13:51:56;;;;;;;6.05;4.35;;;8.30;99.90;;;;;;4934887;29;20173;-65
2022/11/30 13:54:47;;;;;;;5.60;4.87;;;8.30;99.90;;;;;;4935476;29;20197;-66
2022/11/30 13:57:24;;;;;;;9.98;5.20;;;8.30;99.90;;;;;;4935296;29;20857;-66
2022/11/30 13:59:51;;;;;;;6.70;4.38;;;8.20;99.90;;;;;;4933944;29;20189;-64
2022/11/30 14:02:32;;;;;;;5.65;4.90;;;8.20;99.90;;;;;;4942525;29;20216;-65
2022/11/30 14:05:16;;;;;;;7.45;5.65;;;8.20;99.90;;;;;;4936952;29;20551;-67
2022/11/30 14:07:51;;;;;;;8.38;6.18;;;8.10;99.90;;;;;;4937246;29;20211;-65
2022/11/30 14:10:40;;;;;;;7.78;5.43;;;8.10;99.90;;;;;;4938659;29;20176;-65
2022/11/30 14:13:12;;;;;;;6.78;4.60;;;8.00;99.90;;;;;;4937647;29;20241;-65
2022/11/30 14:15:38;;;;;;;5.70;5.10;;;8.00;99.90;;;;;;4919421;29;20562;-66
2022/11/30 14:18:06;;;;;;;8.30;5.47;;;8.00;99.90;;;;;;4920121;29;20184;-65
2022/11/30 14:20:49;;;;;;;10.07;6.38;;;8.00;99.90;;;;;;4920192;29;20308;-66
2022/11/30 14:23:23;;;;;;;12.88;6.38;;;8.10;99.90;;;;;;4936523;29;20177;-65
2022/11/30 14:25:51;;;;;;;12.80;7.75;;;8.00;99.90;;;;;;4938781;29;20204;-64
2022/11/30 14:28:20;;;;;;;8.63;5.57;;;8.00;99.90;;;;;;4937837;29;20204;-63
2022/11/30 14:30:47;;;;;;;7.28;5.72;;;8.00;99.90;;;;;;4938820;29;20645;-65
2022/11/30 14:33:18;;;;;;;16.05;7.20;;;8.00;99.90;;;;;;4938346;29;20543;-66
2022/11/30 14:35:45;;;;;;;7.78;5.85;;;7.90;99.90;;;;;;4937671;29;20215;-64
2022/11/30 14:38:30;;;;;;;10.15;5.55;;;7.90;99.90;;;;;;4938524;29;20182;-67
2022/11/30 14:40:57;;;;;;;11.30;6.07;;;7.90;99.90;;;;;;4938779;29;20661;-66
2022/11/30 14:43:26;;;;;;;9.02;7.05;;;7.90;99.90;;;;;;4938452;29;20188;-65
2022/11/30 14:46:03;;;;;;;12.23;7.15;;;7.90;99.90;;;;;;4938717;29;20256;-66
2022/11/30 14:48:29;;;;;;;10.40;5.97;;;7.90;99.90;;;;;;4937560;29;20216;-65
2022/11/30 14:50:57;;;;;;;10.80;7.53;;;7.90;99.90;;;;;;4938638;29;20180;-65
2022/11/30 14:53:50;;;;;;;9.93;7.60;;;7.90;99.90;;;;;;4936100;29;20239;-65
2022/11/30 14:56:31;;;;;;;12.07;8.20;;;7.90;99.90;;;;;;4938070;29;20277;-64
2022/11/30 14:59:46;;;;;;;8.98;6.10;;;7.90;99.90;;;;;;4938179;29;20187;-67
2022/11/30 15:02:29;;;;;;;11.77;7.38;;;7.90;99.90;;;;;;4930794;29;20209;-66
2022/11/30 15:04:57;;;;;;;11.07;7.00;;;7.80;99.90;;;;;;4936814;29;20276;-65
2022/11/30 15:07:24;;;;;;;12.02;6.97;;;7.80;99.90;;;;;;4937795;29;20631;-67
2022/11/30 15:09:54;;;;;;;7.90;6.20;;;7.80;99.90;;;;;;4936598;29;20181;-65
2022/11/30 15:12:22;;;;;;;10.02;7.28;;;7.80;99.90;;;;;;4938237;29;20174;-63
2022/11/30 15:15:02;;;;;;;13.20;6.80;;;7.80;99.90;;;;;;4937499;29;20232;-66
2022/11/30 15:17:28;;;;;;;12.38;7.50;;;7.80;99.90;;;;;;4919303;29;20195;-65
2022/11/30 15:19:53;;;;;;;9.60;7.13;;;7.80;99.90;;;;;;4919351;29;20178;-66
2022/11/30 15:22:22;;;;;;;12.43;6.87;;;7.80;99.90;;;;;;4938197;29;20252;-66
2022/11/30 15:24:48;;;;;;;19.00;9.50;;;7.70;99.90;;;;;;4937670;29;20678;-65
2022/11/30 15:27:20;;;;;;;7.88;6.82;;;7.70;99.90;;;;;;4937952;29;20658;-65
2022/11/30 15:29:58;;;;;;;10.02;6.68;;;7.70;99.90;;;;;;4938076;29;20178;-64
2022/11/30 15:32:24;;;;;;;10.30;6.13;;;7.70;99.90;;;;;;4937878;29;20229;-63
2022/11/30 15:34:56;;;;;;;15.38;7.45;;;7.60;99.90;;;;;;4932614;29;20198;-63
2022/11/30 15:37:33;;;;;;;11.63;8.90;;;7.70;99.90;;;;;;4919000;29;20259;-63
2022/11/30 15:40:01;;;;;;;14.00;7.97;;;7.60;99.90;;;;;;4917000;29;20197;-65
2022/11/30 15:42:28;;;;;;;10.40;8.30;;;7.60;99.90;;;;;;4919223;29;20567;-64
2022/11/30 15:45:09;;;;;;;11.65;7.40;;;7.50;99.90;;;;;;4934055;29;20211;-62
2022/11/30 15:47:37;;;;;;;13.43;9.73;;;7.60;99.90;;;;;;4937023;29;20190;-64
2022/11/30 15:50:37;;;;;;;13.02;7.20;;;7.60;99.90;;;;;;4937293;29;20756;-65
2022/11/30 15:53:32;;;;;;;12.43;7.80;;;7.60;99.90;;;;;;4903547;29;20213;-64
2022/11/30 15:56:01;;;;;;;20.92;8.85;;;7.50;99.90;;;;;;4935496;29;20170;-63
2022/11/30 15:58:46;;;;;;;13.70;7.78;;;7.50;99.90;;;;;;4936399;29;20318;-64
2022/11/30 16:01:23;;;;;;;13.68;7.82;;;7.50;99.90;;;;;;4927232;29;20268;-64
2022/11/30 16:03:55;;;;;;;10.88;8.00;;;7.50;99.90;;;;;;4936337;29;20196;-64
2022/11/30 16:06:22;;;;;;;15.35;8.27;;;7.50;99.90;;;;;;4936568;29;20188;-64
2022/11/30 16:08:49;;;;;;;13.10;7.00;;;7.50;99.90;;;;;;4936706;29;20224;-65
2022/11/30 16:11:16;;;;;;;13.15;8.30;;;7.50;99.90;;;;;;4936752;29;20169;-64
2022/11/30 16:13:42;;;;;;;14.20;7.88;;;7.50;99.90;;;;;;4936241;29;20206;-65
2022/11/30 16:16:19;;;;;;;10.50;7.47;;;7.50;99.90;;;;;;4932450;29;20593;-65
2022/11/30 16:18:45;;;;;;;8.35;5.40;;;7.50;99.90;;;;;;4933668;29;20660;-64
2022/11/30 16:21:17;;;;;;;8.63;5.80;;;7.50;99.90;;;;;;4936155;29;20193;-64
2022/11/30 16:23:43;;;;;;;14.82;7.60;;;7.50;99.90;;;;;;4936315;29;20460;-66
2022/11/30 16:26:17;;;;;;;10.63;7.45;;;7.60;99.90;;;;;;4937022;29;20189;-65
2022/11/30 16:28:42;;;;;;;11.18;6.05;;;7.50;99.90;;;;;;4936205;29;20204;-64
2022/11/30 16:31:15;;;;;;;10.37;6.73;;;7.50;99.90;;;;;;4936372;29;20632;-66
2022/11/30 16:33:45;;;;;;;12.50;7.10;;;7.50;99.90;;;;;;4936804;29;20916;-66
2022/11/30 16:36:16;;;;;;;11.32;6.97;;;7.50;99.90;;;;;;4936973;29;20256;-66
2022/11/30 16:38:45;;;;;;;8.50;6.13;;;7.50;99.90;;;;;;4936721;29;20255;-65
2022/11/30 16:41:13;;;;;;;10.10;7.95;;;7.50;99.90;;;;;;4937016;29;20177;-66
2022/11/30 16:43:39;;;;;;;10.75;7.13;;;7.50;99.90;;;;;;4936507;29;20545;-65
2022/11/30 16:46:08;;;;;;;13.02;7.18;;;7.50;99.90;;;;;;4937104;29;20186;-64
2022/11/30 16:48:34;;;;;;;17.17;7.35;;;7.50;99.90;;;;;;4936734;29;20295;-64
2022/11/30 16:51:02;;;;;;;10.57;7.47;;;7.50;99.90;;;;;;4936601;29;20656;-66
2022/11/30 16:53:28;;;;;;;10.68;7.18;;;7.50;99.90;;;;;;4936170;29;20180;-66
2022/11/30 16:55:53;;;;;;;11.83;7.63;;;7.50;99.90;;;;;;4937050;29;20176;-67
2022/11/30 16:58:19;;;;;;;8.20;6.97;;;7.50;99.90;;;;;;4936887;29;20181;-65
2022/11/30 17:00:45;;;;;;;6.37;5.17;;;7.50;99.90;;;;;;4936334;29;20188;-66
2022/11/30 17:03:24;;;;;;;8.53;5.30;;;7.50;99.90;;;;;;4935730;29;20426;-67
2022/11/30 17:05:50;;;;;;;8.50;5.10;;;7.50;99.90;;;;;;4935481;29;20365;-65
2022/11/30 17:08:15;;;;;;;8.20;6.07;;;7.50;99.90;;;;;;4936089;29;20276;-67
2022/11/30 17:10:41;;;;;;;10.10;5.20;;;7.50;99.90;;;;;;4936209;29;20236;-66
2022/11/30 17:13:12;;;;;;;7.50;5.83;;;7.50;99.90;;;;;;4935476;29;20528;-66
2022/11/30 17:15:38;;;;;;;12.63;6.85;;;7.50;99.90;;;;;;4935960;29;20453;-65
2022/11/30 17:18:03;;;;;;;9.47;6.83;;;7.50;99.90;;;;;;4936207;29;20234;-65
2022/11/30 17:20:29;;;;;;;9.37;6.43;;;7.40;99.90;;;;;;4936675;29;20178;-66
2022/11/30 17:22:55;;;;;;;7.70;4.73;;;7.40;99.90;;;;;;4935883;29;20227;-66
2022/11/30 17:25:22;;;;;;;8.33;6.70;;;7.40;99.90;;;;;;4940211;29;20196;-66
2022/11/30 17:27:48;;;;;;;6.28;5.15;;;7.40;99.90;;;;;;4954159;28;20184;-65
2022/11/30 17:30:16;;;;;;;8.88;5.82;;;7.40;99.90;;;;;;4935860;29;20196;-67
2022/11/30 17:32:41;;;;;;;10.15;4.95;;;7.40;99.90;;;;;;4935464;29;20196;-65
2022/11/30 17:35:07;;;;;;;9.33;6.63;;;7.30;99.90;;;;;;4935879;29;20230;-66
2022/11/30 17:37:33;;;;;;;10.18;6.03;;;7.30;99.90;;;;;;4937087;29;20180;-66
2022/11/30 17:39:59;;;;;;;7.97;5.77;;;7.30;99.90;;;;;;4936721;29;20202;-66
2022/11/30 17:42:24;;;;;;;6.70;5.47;;;7.20;99.90;;;;;;4935890;29;20255;-66
2022/11/30 17:44:50;;;;;;;11.67;5.30;;;7.20;99.90;;;;;;4935996;29;20208;-64
2022/11/30 17:47:16;;;;;;;7.80;5.40;;;7.20;99.90;;;;;;4937160;29;20553;-66
2022/11/30 17:49:41;;;;;;;7.60;5.40;;;7.20;99.90;;;;;;4936989;29;20180;-66
2022/11/30 17:52:07;;;;;;;8.83;6.30;;;7.20;99.90;;;;;;4937238;29;20162;-65
2022/11/30 17:54:33;;;;;;;7.78;5.00;;;7.10;99.90;;;;;;4935435;29;20443;-65
2022/11/30 17:56:59;;;;;;;11.63;6.20;;;7.10;99.90;;;;;;4935670;29;20621;-65
2022/11/30 17:59:24;;;;;;;6.70;4.93;;;7.10;99.90;;;;;;4935567;29;20186;-70
2022/11/30 18:01:50;;;;;;;9.77;5.53;;;7.10;99.90;;;;;;4935931;29;20181;-67
2022/11/30 18:04:16;;;;;;;7.50;5.20;;;7.10;99.90;;;;;;4935428;29;20228;-69
2022/11/30 18:06:41;;;;;;;7.20;4.67;;;7.00;99.90;;;;;;4933666;29;20207;-70
2022/11/30 18:09:07;;;;;;;10.10;6.23;;;7.00;99.90;;;;;;4935465;29;20212;-69
2022/11/30 18:11:33;;;;;;;8.53;5.77;;;7.00;99.90;;;;;;4935321;29;20178;-69
2022/11/30 18:14:00;;;;;;;7.57;5.50;;;6.90;99.90;;;;;;4935625;29;20433;-66
2022/11/30 18:16:29;;;;;;;8.95;4.72;;;7.00;99.90;;;;;;4935233;29;20267;-66
2022/11/30 18:18:57;;;;;;;11.63;6.85;;;6.90;99.90;;;;;;4935399;29;20216;-65
2022/11/30 18:21:25;;;;;;;12.80;6.72;;;6.90;99.90;;;;;;4935591;29;20180;-67